sensor_id;sensor_type;location;lat;lon;timestamp;temperature;humidity
9824;DHT22;4951;50.778;7.196;2022-08-21T00:02:54;15.30;99.90
9824;DHT22;4951;50.778;7.196;2022-08-21T00:05:35;15.30;1.00
9824;DHT22;4951;50.778;7.196;2022-08-21T00:08:05;15.30;1.00
9824;DHT22;4951;50.778;7.196;2022-08-21T00:10:42;15.20;54.30
9824;DHT22;4951;50.778;7.196;2022-08-21T00:13:19;15.20;99.90
9824;DHT22;4951;50.778;7.196;2022-08-21T00:15:51;15.10;99.90
9824;DHT22;4951;50.778;7.196;2022-08-21T00:18:23;15.10;1.00
9824;DHT22;4951;50.778;7.196;2022-08-21T00:21:21;15.10;1.00
9824;DHT22;4951;50.778;7.196;2022-08-21T00:23:49;15.10;1.00
9824;DHT22;4951;50.778;7.196;2022-08-21T00:26:16;15.00;1.00
9824;DHT22;4951;50.778;7.196;2022-08-21T00:28:45;15.00;1.00
9824;DHT22;4951;50.778;7.196;2022-08-21T00:31:17;15.00;59.20
9824;DHT22;4951;50.778;7.196;2022-08-21T00:33:55;15.00;99.90
9824;DHT22;4951;50.778;7.196;2022-08-21T00:36:24;15.00;99.90
9824;DHT22;4951;50.778;7.196;2022-08-21T00:38:58;14.90;99.90
9824;DHT22;4951;50.778;7.196;2022-08-21T00:41:38;14.90;1.00
9824;DHT22;4951;50.778;7.196;2022-08-21T00:44:12;14.90;1.00
9824;DHT22;4951;50.778;7.196;2022-08-21T00:46:46;14.80;1.00
9824;DHT22;4951;50.778;7.196;2022-08-21T00:49:28;14.80;1.00
9824;DHT22;4951;50.778;7.196;2022-08-21T00:52:01;14.70;1.00
9824;DHT22;4951;50.778;7.196;2022-08-21T00:54:31;14.70;1.60
9824;DHT22;4951;50.778;7.196;2022-08-21T00:57:20;14.70;43.70
9824;DHT22;4951;50.778;7.196;2022-08-21T01:00:39;14.60;99.90
9824;DHT22;4951;50.778;7.196;2022-08-21T01:03:18;14.60;99.90
9824;DHT22;4951;50.778;7.196;2022-08-21T01:05:53;14.60;99.90
9824;DHT22;4951;50.778;7.196;2022-08-21T01:11:50;14.50;82.60
9824;DHT22;4951;50.778;7.196;2022-08-21T01:14:21;14.50;99.90
9824;DHT22;4951;50.778;7.196;2022-08-21T01:17:11;14.50;99.90
9824;DHT22;4951;50.778;7.196;2022-08-21T01:19:40;14.50;99.90
9824;DHT22;4951;50.778;7.196;2022-08-21T01:22:13;14.50;99.90
9824;DHT22;4951;50.778;7.196;2022-08-21T01:24:40;14.40;99.90
9824;DHT22;4951;50.778;7.196;2022-08-21T01:27:08;14.40;99.90
9824;DHT22;4951;50.778;7.196;2022-08-21T01:29:46;14.40;99.90
9824;DHT22;4951;50.778;7.196;2022-08-21T01:32:25;14.40;99.90
9824;DHT22;4951;50.778;7.196;2022-08-21T01:34:54;14.40;99.90
9824;DHT22;4951;50.778;7.196;2022-08-21T01:37:24;14.40;99.90
9824;DHT22;4951;50.778;7.196;2022-08-21T01:39:53;14.40;81.40
9824;DHT22;4951;50.778;7.196;2022-08-21T01:42:35;14.40;99.90
9824;DHT22;4951;50.778;7.196;2022-08-21T01:45:39;14.40;93.80
9824;DHT22;4951;50.778;7.196;2022-08-21T01:48:07;14.30;96.20
9824;DHT22;4951;50.778;7.196;2022-08-21T01:50:50;14.30;99.90
9824;DHT22;4951;50.778;7.196;2022-08-21T01:53:20;14.30;99.20
9824;DHT22;4951;50.778;7.196;2022-08-21T01:55:56;14.30;99.90
9824;DHT22;4951;50.778;7.196;2022-08-21T01:58:41;14.30;96.80
9824;DHT22;4951;50.778;7.196;2022-08-21T02:01:26;14.30;63.10
9824;DHT22;4951;50.778;7.196;2022-08-21T02:03:56;14.20;60.90
9824;DHT22;4951;50.778;7.196;2022-08-21T02:06:31;14.20;99.90
9824;DHT22;4951;50.778;7.196;2022-08-21T02:09:01;14.10;99.90
9824;DHT22;4951;50.778;7.196;2022-08-21T02:11:36;14.10;99.90
9824;DHT22;4951;50.778;7.196;2022-08-21T02:14:10;14.10;99.90
9824;DHT22;4951;50.778;7.196;2022-08-21T02:16:44;14.10;99.90
9824;DHT22;4951;50.778;7.196;2022-08-21T02:19:32;14.00;99.90
9824;DHT22;4951;50.778;7.196;2022-08-21T02:22:11;14.00;99.90
9824;DHT22;4951;50.778;7.196;2022-08-21T02:24:43;14.00;99.90
9824;DHT22;4951;50.778;7.196;2022-08-21T02:27:11;14.00;99.90
9824;DHT22;4951;50.778;7.196;2022-08-21T02:29:41;13.90;99.90
9824;DHT22;4951;50.778;7.196;2022-08-21T02:32:08;13.90;99.90
9824;DHT22;4951;50.778;7.196;2022-08-21T02:34:36;13.90;99.90
9824;DHT22;4951;50.778;7.196;2022-08-21T02:37:26;13.90;99.90
9824;DHT22;4951;50.778;7.196;2022-08-21T02:40:00;13.90;99.90
9824;DHT22;4951;50.778;7.196;2022-08-21T02:42:35;13.80;99.90
9824;DHT22;4951;50.778;7.196;2022-08-21T02:45:07;13.80;99.90
9824;DHT22;4951;50.778;7.196;2022-08-21T02:47:35;13.80;99.90
9824;DHT22;4951;50.778;7.196;2022-08-21T02:50:05;13.70;99.90
9824;DHT22;4951;50.778;7.196;2022-08-21T02:52:35;13.70;99.90
9824;DHT22;4951;50.778;7.196;2022-08-21T02:55:08;13.70;99.90
9824;DHT22;4951;50.778;7.196;2022-08-21T02:57:35;13.70;99.90
9824;DHT22;4951;50.778;7.196;2022-08-21T03:00:14;13.60;99.90
9824;DHT22;4951;50.778;7.196;2022-08-21T03:03:07;13.60;1.00
9824;DHT22;4951;50.778;7.196;2022-08-21T03:05:36;13.60;1.00
9824;DHT22;4951;50.778;7.196;2022-08-21T03:08:09;13.60;1.00
9824;DHT22;4951;50.778;7.196;2022-08-21T03:10:41;13.50;1.00
9824;DHT22;4951;50.778;7.196;2022-08-21T03:13:21;13.50;1.00
9824;DHT22;4951;50.778;7.196;2022-08-21T03:16:18;13.50;1.00
9824;DHT22;4951;50.778;7.196;2022-08-21T03:18:59;13.40;1.00
9824;DHT22;4951;50.778;7.196;2022-08-21T03:21:29;13.40;1.00
9824;DHT22;4951;50.778;7.196;2022-08-21T03:23:57;13.40;1.00
9824;DHT22;4951;50.778;7.196;2022-08-21T03:26:26;13.40;1.00
9824;DHT22;4951;50.778;7.196;2022-08-21T03:28:54;13.30;1.00
9824;DHT22;4951;50.778;7.196;2022-08-21T03:31:26;13.30;1.00
9824;DHT22;4951;50.778;7.196;2022-08-21T03:34:02;13.30;1.00
9824;DHT22;4951;50.778;7.196;2022-08-21T03:36:32;13.20;1.00
9824;DHT22;4951;50.778;7.196;2022-08-21T03:39:04;13.20;1.00
9824;DHT22;4951;50.778;7.196;2022-08-21T03:41:37;13.20;1.00
9824;DHT22;4951;50.778;7.196;2022-08-21T03:44:04;13.20;1.00
9824;DHT22;4951;50.778;7.196;2022-08-21T03:46:33;13.20;1.00
9824;DHT22;4951;50.778;7.196;2022-08-21T03:49:02;13.10;1.00
9824;DHT22;4951;50.778;7.196;2022-08-21T03:51:43;13.10;1.00
9824;DHT22;4951;50.778;7.196;2022-08-21T03:54:35;13.10;1.00
9824;DHT22;4951;50.778;7.196;2022-08-21T03:57:05;13.10;1.00
9824;DHT22;4951;50.778;7.196;2022-08-21T03:59:50;13.10;1.00
9824;DHT22;4951;50.778;7.196;2022-08-21T04:02:35;13.00;1.00
9824;DHT22;4951;50.778;7.196;2022-08-21T04:05:20;13.00;1.00
9824;DHT22;4951;50.778;7.196;2022-08-21T04:08:11;13.00;1.00
9824;DHT22;4951;50.778;7.196;2022-08-21T04:10:39;12.90;1.00
9824;DHT22;4951;50.778;7.196;2022-08-21T04:13:34;12.90;1.00
9824;DHT22;4951;50.778;7.196;2022-08-21T04:16:18;12.90;1.00
9824;DHT22;4951;50.778;7.196;2022-08-21T04:19:08;12.90;1.00
9824;DHT22;4951;50.778;7.196;2022-08-21T04:21:47;12.90;1.00
9824;DHT22;4951;50.778;7.196;2022-08-21T04:24:16;12.90;1.00
9824;DHT22;4951;50.778;7.196;2022-08-21T04:26:50;12.90;1.00
9824;DHT22;4951;50.778;7.196;2022-08-21T04:29:19;12.90;1.00
9824;DHT22;4951;50.778;7.196;2022-08-21T04:31:54;12.90;1.00
9824;DHT22;4951;50.778;7.196;2022-08-21T04:34:43;12.80;1.00
9824;DHT22;4951;50.778;7.196;2022-08-21T04:37:32;12.80;1.00
9824;DHT22;4951;50.778;7.196;2022-08-21T04:40:06;12.80;1.00
9824;DHT22;4951;50.778;7.196;2022-08-21T04:43:00;12.80;1.00
9824;DHT22;4951;50.778;7.196;2022-08-21T04:45:43;12.90;1.00
9824;DHT22;4951;50.778;7.196;2022-08-21T04:48:22;12.90;1.00
9824;DHT22;4951;50.778;7.196;2022-08-21T04:50:59;12.80;1.00
9824;DHT22;4951;50.778;7.196;2022-08-21T04:53:33;12.90;1.00
9824;DHT22;4951;50.778;7.196;2022-08-21T04:56:07;12.90;1.00
9824;DHT22;4951;50.778;7.196;2022-08-21T04:58:56;12.90;1.00
9824;DHT22;4951;50.778;7.196;2022-08-21T05:01:27;12.90;1.00
9824;DHT22;4951;50.778;7.196;2022-08-21T05:03:59;12.90;1.00
9824;DHT22;4951;50.778;7.196;2022-08-21T05:06:28;12.90;1.00
9824;DHT22;4951;50.778;7.196;2022-08-21T05:09:04;12.90;1.00
9824;DHT22;4951;50.778;7.196;2022-08-21T05:11:39;12.90;1.00
9824;DHT22;4951;50.778;7.196;2022-08-21T05:14:10;12.90;1.00
9824;DHT22;4951;50.778;7.196;2022-08-21T05:16:51;12.90;1.00
9824;DHT22;4951;50.778;7.196;2022-08-21T05:19:33;13.00;1.00
9824;DHT22;4951;50.778;7.196;2022-08-21T05:22:05;13.00;1.00
9824;DHT22;4951;50.778;7.196;2022-08-21T05:24:37;13.00;1.00
9824;DHT22;4951;50.778;7.196;2022-08-21T05:27:17;13.00;1.00
9824;DHT22;4951;50.778;7.196;2022-08-21T05:29:44;13.10;1.00
9824;DHT22;4951;50.778;7.196;2022-08-21T05:32:21;13.20;1.00
9824;DHT22;4951;50.778;7.196;2022-08-21T05:34:54;13.20;1.00
9824;DHT22;4951;50.778;7.196;2022-08-21T05:37:26;13.30;1.00
9824;DHT22;4951;50.778;7.196;2022-08-21T05:39:54;13.30;1.00
9824;DHT22;4951;50.778;7.196;2022-08-21T05:42:26;13.40;1.00
9824;DHT22;4951;50.778;7.196;2022-08-21T05:44:57;13.40;1.00
9824;DHT22;4951;50.778;7.196;2022-08-21T05:47:49;13.50;1.00
9824;DHT22;4951;50.778;7.196;2022-08-21T05:50:16;13.60;1.00
9824;DHT22;4951;50.778;7.196;2022-08-21T05:52:43;13.60;1.00
9824;DHT22;4951;50.778;7.196;2022-08-21T05:55:17;13.70;1.00
9824;DHT22;4951;50.778;7.196;2022-08-21T05:58:13;13.70;1.00
9824;DHT22;4951;50.778;7.196;2022-08-21T06:00:46;13.80;1.00
9824;DHT22;4951;50.778;7.196;2022-08-21T06:03:44;13.90;1.00
9824;DHT22;4951;50.778;7.196;2022-08-21T06:06:49;13.90;1.00
9824;DHT22;4951;50.778;7.196;2022-08-21T06:16:52;14.20;1.00
9824;DHT22;4951;50.778;7.196;2022-08-21T06:19:49;14.30;1.00
9824;DHT22;4951;50.778;7.196;2022-08-21T06:22:36;14.40;1.00
9824;DHT22;4951;50.778;7.196;2022-08-21T06:25:38;14.50;1.00
9824;DHT22;4951;50.778;7.196;2022-08-21T06:28:48;14.60;1.00
9824;DHT22;4951;50.778;7.196;2022-08-21T06:31:22;14.70;1.00
9824;DHT22;4951;50.778;7.196;2022-08-21T06:34:04;14.80;1.00
9824;DHT22;4951;50.778;7.196;2022-08-21T06:37:14;14.80;1.00
9824;DHT22;4951;50.778;7.196;2022-08-21T06:39:45;15.00;1.00
9824;DHT22;4951;50.778;7.196;2022-08-21T06:42:56;15.10;1.00
9824;DHT22;4951;50.778;7.196;2022-08-21T06:45:57;15.30;1.00
9824;DHT22;4951;50.778;7.196;2022-08-21T06:49:30;15.40;1.00
9824;DHT22;4951;50.778;7.196;2022-08-21T06:52:50;15.60;1.00
9824;DHT22;4951;50.778;7.196;2022-08-21T06:56:38;15.90;1.00
9824;DHT22;4951;50.778;7.196;2022-08-21T06:59:13;16.10;1.00
9824;DHT22;4951;50.778;7.196;2022-08-21T07:02:25;16.30;99.90
9824;DHT22;4951;50.778;7.196;2022-08-21T07:04:53;16.40;99.90
9824;DHT22;4951;50.778;7.196;2022-08-21T07:07:31;16.60;99.90
9824;DHT22;4951;50.778;7.196;2022-08-21T07:10:54;16.70;99.90
9824;DHT22;4951;50.778;7.196;2022-08-21T07:13:41;16.90;99.90
9824;DHT22;4951;50.778;7.196;2022-08-21T07:16:26;17.00;99.90
9824;DHT22;4951;50.778;7.196;2022-08-21T07:19:03;17.20;99.90
9824;DHT22;4951;50.778;7.196;2022-08-21T07:21:44;17.30;99.90
9824;DHT22;4951;50.778;7.196;2022-08-21T07:25:00;17.40;99.90
9824;DHT22;4951;50.778;7.196;2022-08-21T07:27:33;17.50;99.90
9824;DHT22;4951;50.778;7.196;2022-08-21T07:30:12;17.60;48.10
9824;DHT22;4951;50.778;7.196;2022-08-21T07:33:17;17.70;20.70
9824;DHT22;4951;50.778;7.196;2022-08-21T07:35:54;17.90;1.00
9824;DHT22;4951;50.778;7.196;2022-08-21T07:38:36;18.00;1.00
9824;DHT22;4951;50.778;7.196;2022-08-21T07:41:26;18.10;1.00
9824;DHT22;4951;50.778;7.196;2022-08-21T07:44:28;18.30;1.00
9824;DHT22;4951;50.778;7.196;2022-08-21T07:46:56;18.40;1.00
9824;DHT22;4951;50.778;7.196;2022-08-21T07:49:37;18.50;1.00
9824;DHT22;4951;50.778;7.196;2022-08-21T07:52:19;18.60;1.00
9824;DHT22;4951;50.778;7.196;2022-08-21T07:55:02;18.70;99.90
9824;DHT22;4951;50.778;7.196;2022-08-21T07:57:35;18.70;99.90
9824;DHT22;4951;50.778;7.196;2022-08-21T08:00:29;18.90;99.90
9824;DHT22;4951;50.778;7.196;2022-08-21T08:02:57;19.00;1.00
9824;DHT22;4951;50.778;7.196;2022-08-21T08:06:15;19.20;1.00
9824;DHT22;4951;50.778;7.196;2022-08-21T08:09:24;19.30;1.00
9824;DHT22;4951;50.778;7.196;2022-08-21T08:12:44;19.50;99.90
9824;DHT22;4951;50.778;7.196;2022-08-21T08:16:16;19.60;1.00
9824;DHT22;4951;50.778;7.196;2022-08-21T08:18:52;19.70;99.90
9824;DHT22;4951;50.778;7.196;2022-08-21T08:21:26;19.70;1.00
9824;DHT22;4951;50.778;7.196;2022-08-21T08:24:07;19.80;1.00
9824;DHT22;4951;50.778;7.196;2022-08-21T08:26:58;19.90;99.90
9824;DHT22;4951;50.778;7.196;2022-08-21T08:29:34;20.00;1.00
9824;DHT22;4951;50.778;7.196;2022-08-21T08:41:18;20.10;99.90
9824;DHT22;4951;50.778;7.196;2022-08-21T08:44:17;20.30;82.80
9824;DHT22;4951;50.778;7.196;2022-08-21T08:51:11;20.50;1.00
9824;DHT22;4951;50.778;7.196;2022-08-21T08:53:50;20.70;99.90
9824;DHT22;4951;50.778;7.196;2022-08-21T08:56:32;20.80;99.90
9824;DHT22;4951;50.778;7.196;2022-08-21T08:59:38;20.90;1.00
9824;DHT22;4951;50.778;7.196;2022-08-21T09:06:46;21.00;1.00
9824;DHT22;4951;50.778;7.196;2022-08-21T09:10:10;21.20;99.90
9824;DHT22;4951;50.778;7.196;2022-08-21T09:13:37;21.40;99.90
9824;DHT22;4951;50.778;7.196;2022-08-21T09:16:47;21.50;1.00
9824;DHT22;4951;50.778;7.196;2022-08-21T09:20:32;21.50;1.00
9824;DHT22;4951;50.778;7.196;2022-08-21T09:23:17;21.60;1.00
9824;DHT22;4951;50.778;7.196;2022-08-21T09:26:47;21.60;99.90
9824;DHT22;4951;50.778;7.196;2022-08-21T09:29:46;21.70;99.90
9824;DHT22;4951;50.778;7.196;2022-08-21T09:32:39;21.80;99.90
9824;DHT22;4951;50.778;7.196;2022-08-21T09:36:09;21.90;1.00
9824;DHT22;4951;50.778;7.196;2022-08-21T09:39:49;21.90;1.00
9824;DHT22;4951;50.778;7.196;2022-08-21T09:56:51;22.40;1.00
9824;DHT22;4951;50.778;7.196;2022-08-21T09:59:50;22.40;1.00
9824;DHT22;4951;50.778;7.196;2022-08-21T10:02:48;22.50;99.90
9824;DHT22;4951;50.778;7.196;2022-08-21T10:05:28;22.70;99.90
9824;DHT22;4951;50.778;7.196;2022-08-21T10:08:03;22.70;99.90
9824;DHT22;4951;50.778;7.196;2022-08-21T10:10:54;22.80;99.90
9824;DHT22;4951;50.778;7.196;2022-08-21T10:13:34;22.90;99.90
9824;DHT22;4951;50.778;7.196;2022-08-21T10:16:15;23.00;94.00
9824;DHT22;4951;50.778;7.196;2022-08-21T10:19:15;23.00;26.80
9824;DHT22;4951;50.778;7.196;2022-08-21T10:22:02;23.10;1.00
9824;DHT22;4951;50.778;7.196;2022-08-21T10:24:41;23.20;1.00
9824;DHT22;4951;50.778;7.196;2022-08-21T10:27:24;23.30;1.00
9824;DHT22;4951;50.778;7.196;2022-08-21T10:30:21;23.30;1.00
9824;DHT22;4951;50.778;7.196;2022-08-21T10:33:26;23.40;1.00
9824;DHT22;4951;50.778;7.196;2022-08-21T10:36:29;23.50;1.00
9824;DHT22;4951;50.778;7.196;2022-08-21T10:39:56;23.50;1.00
9824;DHT22;4951;50.778;7.196;2022-08-21T10:42:52;23.60;1.00
9824;DHT22;4951;50.778;7.196;2022-08-21T10:45:48;23.60;1.00
9824;DHT22;4951;50.778;7.196;2022-08-21T10:48:37;23.70;1.00
9824;DHT22;4951;50.778;7.196;2022-08-21T10:51:34;23.80;1.00
9824;DHT22;4951;50.778;7.196;2022-08-21T10:54:12;23.90;1.00
9824;DHT22;4951;50.778;7.196;2022-08-21T10:57:32;24.00;1.00
9824;DHT22;4951;50.778;7.196;2022-08-21T11:00:12;24.10;1.00
9824;DHT22;4951;50.778;7.196;2022-08-21T11:03:05;24.20;1.00
9824;DHT22;4951;50.778;7.196;2022-08-21T11:05:53;24.30;1.00
9824;DHT22;4951;50.778;7.196;2022-08-21T11:09:11;24.40;1.00
9824;DHT22;4951;50.778;7.196;2022-08-21T11:11:52;24.50;1.00
9824;DHT22;4951;50.778;7.196;2022-08-21T11:14:47;24.60;1.00
9824;DHT22;4951;50.778;7.196;2022-08-21T11:17:35;24.70;1.00
9824;DHT22;4951;50.778;7.196;2022-08-21T11:23:46;24.90;1.00
9824;DHT22;4951;50.778;7.196;2022-08-21T11:26:51;25.00;99.90
9824;DHT22;4951;50.778;7.196;2022-08-21T11:30:14;25.00;99.90
9824;DHT22;4951;50.778;7.196;2022-08-21T11:32:53;25.10;99.90
9824;DHT22;4951;50.778;7.196;2022-08-21T11:38:42;25.30;99.90
9824;DHT22;4951;50.778;7.196;2022-08-21T11:42:24;25.40;99.90
9824;DHT22;4951;50.778;7.196;2022-08-21T11:45:32;25.50;99.90
9824;DHT22;4951;50.778;7.196;2022-08-21T11:49:06;25.50;99.90
9824;DHT22;4951;50.778;7.196;2022-08-21T11:52:05;25.50;99.90
9824;DHT22;4951;50.778;7.196;2022-08-21T11:54:57;25.60;99.90
9824;DHT22;4951;50.778;7.196;2022-08-21T11:57:30;25.70;97.70
9824;DHT22;4951;50.778;7.196;2022-08-21T12:00:26;25.80;81.20
9824;DHT22;4951;50.778;7.196;2022-08-21T12:03:13;25.90;55.50
9824;DHT22;4951;50.778;7.196;2022-08-21T12:06:13;26.00;34.00
9824;DHT22;4951;50.778;7.196;2022-08-21T12:08:45;26.10;21.10
9824;DHT22;4951;50.778;7.196;2022-08-21T12:11:31;26.20;1.00
9824;DHT22;4951;50.778;7.196;2022-08-21T12:14:40;26.30;1.00
9824;DHT22;4951;50.778;7.196;2022-08-21T12:20:40;26.40;1.00
9824;DHT22;4951;50.778;7.196;2022-08-21T12:23:29;26.30;1.00
9824;DHT22;4951;50.778;7.196;2022-08-21T12:26:13;26.30;1.00
9824;DHT22;4951;50.778;7.196;2022-08-21T12:32:24;26.40;1.00
9824;DHT22;4951;50.778;7.196;2022-08-21T12:35:13;26.50;1.00
9824;DHT22;4951;50.778;7.196;2022-08-21T12:38:20;26.60;1.00
9824;DHT22;4951;50.778;7.196;2022-08-21T12:41:03;26.80;1.00
9824;DHT22;4951;50.778;7.196;2022-08-21T12:44:10;27.00;1.00
9824;DHT22;4951;50.778;7.196;2022-08-21T12:47:00;27.20;1.00
9824;DHT22;4951;50.778;7.196;2022-08-21T12:49:51;27.40;1.00
9824;DHT22;4951;50.778;7.196;2022-08-21T12:53:28;27.50;1.00
9824;DHT22;4951;50.778;7.196;2022-08-21T12:56:22;27.80;1.00
9824;DHT22;4951;50.778;7.196;2022-08-21T12:59:21;28.10;1.00
9824;DHT22;4951;50.778;7.196;2022-08-21T13:01:51;28.40;1.00
9824;DHT22;4951;50.778;7.196;2022-08-21T13:04:32;28.90;1.00
9824;DHT22;4951;50.778;7.196;2022-08-21T13:07:07;29.30;1.00
9824;DHT22;4951;50.778;7.196;2022-08-21T13:09:41;29.70;1.00
9824;DHT22;4951;50.778;7.196;2022-08-21T13:12:14;30.10;1.00
9824;DHT22;4951;50.778;7.196;2022-08-21T13:14:50;30.40;1.00
9824;DHT22;4951;50.778;7.196;2022-08-21T13:17:41;30.60;1.00
9824;DHT22;4951;50.778;7.196;2022-08-21T13:20:29;30.90;1.00
9824;DHT22;4951;50.778;7.196;2022-08-21T13:23:21;31.10;1.00
9824;DHT22;4951;50.778;7.196;2022-08-21T13:26:26;31.30;1.00
9824;DHT22;4951;50.778;7.196;2022-08-21T13:29:29;31.50;1.00
9824;DHT22;4951;50.778;7.196;2022-08-21T13:35:51;31.70;1.00
9824;DHT22;4951;50.778;7.196;2022-08-21T13:38:45;31.30;1.00
9824;DHT22;4951;50.778;7.196;2022-08-21T13:55:48;32.40;1.00
9824;DHT22;4951;50.778;7.196;2022-08-21T13:58:44;32.30;1.00
9824;DHT22;4951;50.778;7.196;2022-08-21T14:01:34;32.00;1.00
9824;DHT22;4951;50.778;7.196;2022-08-21T14:04:14;32.10;1.00
9824;DHT22;4951;50.778;7.196;2022-08-21T14:06:46;31.90;1.00
9824;DHT22;4951;50.778;7.196;2022-08-21T14:09:41;31.80;1.00
9824;DHT22;4951;50.778;7.196;2022-08-21T14:12:28;31.90;1.00
9824;DHT22;4951;50.778;7.196;2022-08-21T14:15:29;32.30;1.00
9824;DHT22;4951;50.778;7.196;2022-08-21T14:18:13;32.40;1.00
9824;DHT22;4951;50.778;7.196;2022-08-21T14:21:11;32.70;1.00
9824;DHT22;4951;50.778;7.196;2022-08-21T14:23:39;32.90;1.00
9824;DHT22;4951;50.778;7.196;2022-08-21T14:26:17;33.00;1.00
9824;DHT22;4951;50.778;7.196;2022-08-21T14:28:50;33.00;1.00
9824;DHT22;4951;50.778;7.196;2022-08-21T14:31:40;32.90;1.00
9824;DHT22;4951;50.778;7.196;2022-08-21T14:34:48;32.70;1.00
9824;DHT22;4951;50.778;7.196;2022-08-21T14:37:42;32.30;1.00
9824;DHT22;4951;50.778;7.196;2022-08-21T14:40:40;31.80;1.00
9824;DHT22;4951;50.778;7.196;2022-08-21T14:43:43;31.10;1.00
9824;DHT22;4951;50.778;7.196;2022-08-21T14:46:23;30.50;1.00
9824;DHT22;4951;50.778;7.196;2022-08-21T14:49:37;29.90;1.00
9824;DHT22;4951;50.778;7.196;2022-08-21T14:52:27;29.40;1.00
9824;DHT22;4951;50.778;7.196;2022-08-21T14:54:54;29.30;1.00
9824;DHT22;4951;50.778;7.196;2022-08-21T14:57:22;29.10;1.00
9824;DHT22;4951;50.778;7.196;2022-08-21T14:59:51;28.90;1.00
9824;DHT22;4951;50.778;7.196;2022-08-21T15:02:29;28.80;1.00
9824;DHT22;4951;50.778;7.196;2022-08-21T15:05:39;28.70;1.00
9824;DHT22;4951;50.778;7.196;2022-08-21T15:08:18;28.60;1.00
9824;DHT22;4951;50.778;7.196;2022-08-21T15:11:09;28.50;1.00
9824;DHT22;4951;50.778;7.196;2022-08-21T15:13:49;28.60;1.00
9824;DHT22;4951;50.778;7.196;2022-08-21T15:19:46;29.50;1.00
9824;DHT22;4951;50.778;7.196;2022-08-21T15:22:16;30.00;1.00
9824;DHT22;4951;50.778;7.196;2022-08-21T15:24:44;30.20;1.00
9824;DHT22;4951;50.778;7.196;2022-08-21T15:27:21;30.20;1.00
9824;DHT22;4951;50.778;7.196;2022-08-21T15:30:12;30.00;1.00
9824;DHT22;4951;50.778;7.196;2022-08-21T15:32:51;29.70;1.00
9824;DHT22;4951;50.778;7.196;2022-08-21T15:35:24;29.40;1.00
9824;DHT22;4951;50.778;7.196;2022-08-21T15:38:21;29.10;1.00
9824;DHT22;4951;50.778;7.196;2022-08-21T15:40:48;28.80;1.00
9824;DHT22;4951;50.778;7.196;2022-08-21T15:43:23;28.50;1.00
9824;DHT22;4951;50.778;7.196;2022-08-21T15:45:51;28.30;1.00
9824;DHT22;4951;50.778;7.196;2022-08-21T15:48:19;28.10;1.00
9824;DHT22;4951;50.778;7.196;2022-08-21T15:50:56;27.90;1.00
9824;DHT22;4951;50.778;7.196;2022-08-21T15:53:42;27.70;1.00
9824;DHT22;4951;50.778;7.196;2022-08-21T15:56:24;27.50;1.00
9824;DHT22;4951;50.778;7.196;2022-08-21T15:58:57;27.30;1.00
9824;DHT22;4951;50.778;7.196;2022-08-21T16:01:25;27.10;1.00
9824;DHT22;4951;50.778;7.196;2022-08-21T16:03:54;27.00;1.00
9824;DHT22;4951;50.778;7.196;2022-08-21T16:06:28;26.90;1.00
9824;DHT22;4951;50.778;7.196;2022-08-21T16:08:59;26.80;1.00
9824;DHT22;4951;50.778;7.196;2022-08-21T16:11:27;26.80;1.00
9824;DHT22;4951;50.778;7.196;2022-08-21T16:13:57;26.70;1.00
9824;DHT22;4951;50.778;7.196;2022-08-21T16:16:25;26.50;1.00
9824;DHT22;4951;50.778;7.196;2022-08-21T16:18:53;26.40;1.00
9824;DHT22;4951;50.778;7.196;2022-08-21T16:21:21;26.30;1.00
9824;DHT22;4951;50.778;7.196;2022-08-21T16:23:50;26.30;1.00
9824;DHT22;4951;50.778;7.196;2022-08-21T16:26:17;26.20;1.00
9824;DHT22;4951;50.778;7.196;2022-08-21T16:28:45;26.20;1.00
9824;DHT22;4951;50.778;7.196;2022-08-21T16:31:17;26.30;1.00
9824;DHT22;4951;50.778;7.196;2022-08-21T16:33:56;26.30;1.00
9824;DHT22;4951;50.778;7.196;2022-08-21T16:36:39;26.30;1.00
9824;DHT22;4951;50.778;7.196;2022-08-21T16:39:11;26.30;1.00
9824;DHT22;4951;50.778;7.196;2022-08-21T16:41:44;26.30;1.00
9824;DHT22;4951;50.778;7.196;2022-08-21T16:44:19;26.30;1.00
9824;DHT22;4951;50.778;7.196;2022-08-21T16:46:48;26.30;1.00
9824;DHT22;4951;50.778;7.196;2022-08-21T16:49:18;26.20;1.00
9824;DHT22;4951;50.778;7.196;2022-08-21T16:51:46;26.20;1.00
9824;DHT22;4951;50.778;7.196;2022-08-21T16:54:15;26.10;1.00
9824;DHT22;4951;50.778;7.196;2022-08-21T16:56:57;26.10;1.00
9824;DHT22;4951;50.778;7.196;2022-08-21T16:59:24;26.10;1.00
9824;DHT22;4951;50.778;7.196;2022-08-21T17:01:54;26.00;1.00
9824;DHT22;4951;50.778;7.196;2022-08-21T17:04:23;25.90;1.00
9824;DHT22;4951;50.778;7.196;2022-08-21T17:06:54;25.80;1.00
9824;DHT22;4951;50.778;7.196;2022-08-21T17:09:25;25.80;1.00
9824;DHT22;4951;50.778;7.196;2022-08-21T17:16:28;25.60;1.00
9824;DHT22;4951;50.778;7.196;2022-08-21T17:18:59;25.50;1.00
9824;DHT22;4951;50.778;7.196;2022-08-21T17:21:59;25.40;1.00
9824;DHT22;4951;50.778;7.196;2022-08-21T17:24:29;25.30;1.00
9824;DHT22;4951;50.778;7.196;2022-08-21T17:27:06;25.20;1.00
9824;DHT22;4951;50.778;7.196;2022-08-21T17:29:38;25.10;1.00
9824;DHT22;4951;50.778;7.196;2022-08-21T17:32:11;25.10;1.00
9824;DHT22;4951;50.778;7.196;2022-08-21T17:34:46;25.10;1.00
9824;DHT22;4951;50.778;7.196;2022-08-21T17:40:15;25.00;1.00
9824;DHT22;4951;50.778;7.196;2022-08-21T17:42:53;25.00;1.00
9824;DHT22;4951;50.778;7.196;2022-08-21T17:45:36;24.90;1.00
9824;DHT22;4951;50.778;7.196;2022-08-21T17:48:23;24.90;1.00
9824;DHT22;4951;50.778;7.196;2022-08-21T17:51:09;24.90;1.00
9824;DHT22;4951;50.778;7.196;2022-08-21T17:54:14;24.80;1.00
9824;DHT22;4951;50.778;7.196;2022-08-21T17:56:51;24.70;1.00
9824;DHT22;4951;50.778;7.196;2022-08-21T17:59:19;24.70;1.00
9824;DHT22;4951;50.778;7.196;2022-08-21T18:02:13;24.60;1.00
9824;DHT22;4951;50.778;7.196;2022-08-21T18:05:58;24.50;1.00
9824;DHT22;4951;50.778;7.196;2022-08-21T18:12:12;24.30;1.00
9824;DHT22;4951;50.778;7.196;2022-08-21T18:14:48;24.20;1.00
9824;DHT22;4951;50.778;7.196;2022-08-21T18:17:20;24.10;1.00
9824;DHT22;4951;50.778;7.196;2022-08-21T18:20:25;23.90;1.00
9824;DHT22;4951;50.778;7.196;2022-08-21T18:22:53;23.80;1.00
9824;DHT22;4951;50.778;7.196;2022-08-21T18:25:23;23.70;1.00
9824;DHT22;4951;50.778;7.196;2022-08-21T18:27:53;23.70;1.00
9824;DHT22;4951;50.778;7.196;2022-08-21T18:30:26;23.60;1.00
9824;DHT22;4951;50.778;7.196;2022-08-21T18:36:04;23.40;1.00
9824;DHT22;4951;50.778;7.196;2022-08-21T18:38:32;23.30;1.00
9824;DHT22;4951;50.778;7.196;2022-08-21T18:41:01;23.20;1.00
9824;DHT22;4951;50.778;7.196;2022-08-21T18:43:50;23.10;1.00
9824;DHT22;4951;50.778;7.196;2022-08-21T18:46:19;23.00;1.00
9824;DHT22;4951;50.778;7.196;2022-08-21T18:48:46;22.90;1.00
9824;DHT22;4951;50.778;7.196;2022-08-21T18:51:15;22.80;1.00
9824;DHT22;4951;50.778;7.196;2022-08-21T18:53:51;22.70;1.00
9824;DHT22;4951;50.778;7.196;2022-08-21T18:56:32;22.70;1.00
9824;DHT22;4951;50.778;7.196;2022-08-21T18:59:31;22.60;1.00
9824;DHT22;4951;50.778;7.196;2022-08-21T19:02:12;22.50;1.00
9824;DHT22;4951;50.778;7.196;2022-08-21T19:04:42;22.40;1.00
9824;DHT22;4951;50.778;7.196;2022-08-21T19:07:09;22.40;1.00
9824;DHT22;4951;50.778;7.196;2022-08-21T19:09:42;22.30;1.00
9824;DHT22;4951;50.778;7.196;2022-08-21T19:12:13;22.20;1.00
9824;DHT22;4951;50.778;7.196;2022-08-21T19:14:56;22.20;1.00
9824;DHT22;4951;50.778;7.196;2022-08-21T19:17:24;22.20;1.00
9824;DHT22;4951;50.778;7.196;2022-08-21T19:19:54;22.10;1.00
9824;DHT22;4951;50.778;7.196;2022-08-21T19:22:39;22.10;1.00
9824;DHT22;4951;50.778;7.196;2022-08-21T19:25:08;22.10;1.00
9824;DHT22;4951;50.778;7.196;2022-08-21T19:27:36;22.10;1.00
9824;DHT22;4951;50.778;7.196;2022-08-21T19:30:07;22.00;1.00
9824;DHT22;4951;50.778;7.196;2022-08-21T19:32:36;22.00;1.00